sensor_id;sensor_type;location;lat;lon;timestamp;P1;durP1;ratioP1;P2;durP2;ratioP2
75071;SDS011;63651;55.728;38.022;2024-03-08T00:00:17;3.63;;;2.90;;
75071;SDS011;63651;55.728;38.022;2024-03-08T00:05:38;4.25;;;2.88;;
75071;SDS011;63651;55.728;38.022;2024-03-08T00:10:41;5.53;;;3.38;;
75071;SDS011;63651;55.728;38.022;2024-03-08T00:15:44;4.88;;;3.25;;
75071;SDS011;63651;55.728;38.022;2024-03-08T00:20:46;5.50;;;3.63;;
75071;SDS011;63651;55.728;38.022;2024-03-08T00:25:49;5.32;;;3.22;;
75071;SDS011;63651;55.728;38.022;2024-03-08T00:30:52;7.35;;;4.20;;
75071;SDS011;63651;55.728;38.022;2024-03-08T00:35:54;8.07;;;4.93;;
75071;SDS011;63651;55.728;38.022;2024-03-08T00:40:57;5.68;;;4.35;;
75071;SDS011;63651;55.728;38.022;2024-03-08T00:45:59;8.32;;;4.78;;
75071;SDS011;63651;55.728;38.022;2024-03-08T00:51:02;6.40;;;4.78;;
75071;SDS011;63651;55.728;38.022;2024-03-08T00:56:07;8.43;;;4.97;;
75071;SDS011;63651;55.728;38.022;2024-03-08T01:01:12;7.57;;;4.78;;
75071;SDS011;63651;55.728;38.022;2024-03-08T01:06:16;8.73;;;4.72;;
75071;SDS011;63651;55.728;38.022;2024-03-08T01:11:19;6.95;;;4.45;;
75071;SDS011;63651;55.728;38.022;2024-03-08T01:16:22;8.10;;;4.70;;
75071;SDS011;63651;55.728;38.022;2024-03-08T01:21:25;7.03;;;4.40;;
75071;SDS011;63651;55.728;38.022;2024-03-08T01:26:27;6.35;;;4.30;;
75071;SDS011;63651;55.728;38.022;2024-03-08T01:31:30;5.65;;;3.83;;
75071;SDS011;63651;55.728;38.022;2024-03-08T01:36:32;6.85;;;4.47;;
75071;SDS011;63651;55.728;38.022;2024-03-08T01:41:35;6.47;;;4.07;;
75071;SDS011;63651;55.728;38.022;2024-03-08T01:46:38;5.15;;;3.63;;
75071;SDS011;63651;55.728;38.022;2024-03-08T01:51:41;4.15;;;3.10;;
75071;SDS011;63651;55.728;38.022;2024-03-08T01:56:44;5.18;;;3.70;;
75071;SDS011;63651;55.728;38.022;2024-03-08T02:01:45;4.70;;;2.97;;
75071;SDS011;63651;55.728;38.022;2024-03-08T02:06:49;5.88;;;3.03;;
75071;SDS011;63651;55.728;38.022;2024-03-08T02:11:51;4.55;;;2.92;;
75071;SDS011;63651;55.728;38.022;2024-03-08T02:16:53;7.03;;;3.55;;
75071;SDS011;63651;55.728;38.022;2024-03-08T02:21:59;6.47;;;4.03;;
75071;SDS011;63651;55.728;38.022;2024-03-08T02:27:05;6.93;;;4.28;;
75071;SDS011;63651;55.728;38.022;2024-03-08T02:32:07;6.70;;;3.50;;
75071;SDS011;63651;55.728;38.022;2024-03-08T02:37:10;4.35;;;3.22;;
75071;SDS011;63651;55.728;38.022;2024-03-08T02:42:12;6.10;;;2.83;;
75071;SDS011;63651;55.728;38.022;2024-03-08T02:47:15;4.28;;;2.85;;
75071;SDS011;63651;55.728;38.022;2024-03-08T02:52:16;4.00;;;2.47;;
75071;SDS011;63651;55.728;38.022;2024-03-08T02:57:18;3.22;;;2.25;;
75071;SDS011;63651;55.728;38.022;2024-03-08T03:02:20;3.65;;;2.10;;
75071;SDS011;63651;55.728;38.022;2024-03-08T03:07:24;3.53;;;2.30;;
75071;SDS011;63651;55.728;38.022;2024-03-08T03:12:28;3.80;;;2.42;;
75071;SDS011;63651;55.728;38.022;2024-03-08T03:17:32;2.45;;;1.77;;
75071;SDS011;63651;55.728;38.022;2024-03-08T03:22:34;2.10;;;1.83;;
75071;SDS011;63651;55.728;38.022;2024-03-08T03:27:36;3.15;;;2.00;;
75071;SDS011;63651;55.728;38.022;2024-03-08T03:32:39;2.90;;;1.92;;
75071;SDS011;63651;55.728;38.022;2024-03-08T03:37:48;2.30;;;1.80;;
75071;SDS011;63651;55.728;38.022;2024-03-08T03:43:03;2.17;;;1.77;;
75071;SDS011;63651;55.728;38.022;2024-03-08T03:48:05;2.17;;;1.55;;
75071;SDS011;63651;55.728;38.022;2024-03-08T03:53:10;2.95;;;2.13;;
75071;SDS011;63651;55.728;38.022;2024-03-08T03:58:14;4.20;;;1.77;;
75071;SDS011;63651;55.728;38.022;2024-03-08T04:03:17;2.92;;;1.67;;
75071;SDS011;63651;55.728;38.022;2024-03-08T04:08:19;2.63;;;1.80;;
75071;SDS011;63651;55.728;38.022;2024-03-08T04:13:21;3.65;;;1.77;;
75071;SDS011;63651;55.728;38.022;2024-03-08T04:18:23;3.38;;;1.58;;
75071;SDS011;63651;55.728;38.022;2024-03-08T04:23:26;1.95;;;1.52;;
75071;SDS011;63651;55.728;38.022;2024-03-08T04:28:30;3.80;;;2.00;;
75071;SDS011;63651;55.728;38.022;2024-03-08T04:33:32;2.40;;;1.70;;
75071;SDS011;63651;55.728;38.022;2024-03-08T04:38:36;2.15;;;1.60;;
75071;SDS011;63651;55.728;38.022;2024-03-08T04:43:41;1.67;;;1.23;;
75071;SDS011;63651;55.728;38.022;2024-03-08T04:48:44;1.83;;;1.40;;
75071;SDS011;63651;55.728;38.022;2024-03-08T04:53:45;2.75;;;1.70;;
75071;SDS011;63651;55.728;38.022;2024-03-08T04:58:48;2.67;;;1.88;;
75071;SDS011;63651;55.728;38.022;2024-03-08T05:03:50;2.25;;;1.33;;
75071;SDS011;63651;55.728;38.022;2024-03-08T05:08:55;3.15;;;1.38;;
75071;SDS011;63651;55.728;38.022;2024-03-08T05:13:57;2.10;;;1.50;;
75071;SDS011;63651;55.728;38.022;2024-03-08T05:19:00;2.53;;;1.48;;
75071;SDS011;63651;55.728;38.022;2024-03-08T05:24:02;9.50;;;1.63;;
75071;SDS011;63651;55.728;38.022;2024-03-08T05:29:05;2.92;;;1.60;;
75071;SDS011;63651;55.728;38.022;2024-03-08T05:34:07;3.60;;;1.80;;
75071;SDS011;63651;55.728;38.022;2024-03-08T05:39:13;4.03;;;1.63;;
75071;SDS011;63651;55.728;38.022;2024-03-08T05:44:15;4.55;;;1.60;;
75071;SDS011;63651;55.728;38.022;2024-03-08T05:49:20;1.98;;;1.38;;
75071;SDS011;63651;55.728;38.022;2024-03-08T05:54:22;3.15;;;1.70;;
75071;SDS011;63651;55.728;38.022;2024-03-08T05:59:25;3.33;;;1.63;;
75071;SDS011;63651;55.728;38.022;2024-03-08T06:04:28;2.30;;;1.58;;
75071;SDS011;63651;55.728;38.022;2024-03-08T06:09:30;4.10;;;1.70;;
75071;SDS011;63651;55.728;38.022;2024-03-08T06:14:33;3.67;;;1.70;;
75071;SDS011;63651;55.728;38.022;2024-03-08T06:19:35;2.00;;;1.58;;
75071;SDS011;63651;55.728;38.022;2024-03-08T06:24:38;2.35;;;1.65;;
75071;SDS011;63651;55.728;38.022;2024-03-08T06:29:41;3.20;;;1.88;;
75071;SDS011;63651;55.728;38.022;2024-03-08T06:34:43;2.85;;;1.60;;
75071;SDS011;63651;55.728;38.022;2024-03-08T06:39:45;2.75;;;1.55;;
75071;SDS011;63651;55.728;38.022;2024-03-08T06:44:48;2.20;;;1.60;;
75071;SDS011;63651;55.728;38.022;2024-03-08T06:49:53;2.50;;;1.50;;
75071;SDS011;63651;55.728;38.022;2024-03-08T06:54:55;3.22;;;2.03;;
75071;SDS011;63651;55.728;38.022;2024-03-08T06:59:57;2.42;;;1.80;;
75071;SDS011;63651;55.728;38.022;2024-03-08T07:04:59;3.97;;;3.10;;
75071;SDS011;63651;55.728;38.022;2024-03-08T07:10:02;5.90;;;2.85;;
75071;SDS011;63651;55.728;38.022;2024-03-08T07:15:05;6.03;;;3.15;;
75071;SDS011;63651;55.728;38.022;2024-03-08T07:20:09;5.40;;;3.05;;
75071;SDS011;63651;55.728;38.022;2024-03-08T07:25:13;2.90;;;2.13;;
75071;SDS011;63651;55.728;38.022;2024-03-08T07:30:25;6.60;;;2.20;;
75071;SDS011;63651;55.728;38.022;2024-03-08T07:35:45;3.30;;;1.65;;
75071;SDS011;63651;55.728;38.022;2024-03-08T07:40:48;5.57;;;2.58;;
75071;SDS011;63651;55.728;38.022;2024-03-08T07:45:50;4.68;;;2.25;;
75071;SDS011;63651;55.728;38.022;2024-03-08T07:50:54;3.60;;;2.25;;
75071;SDS011;63651;55.728;38.022;2024-03-08T07:55:56;3.35;;;2.45;;
75071;SDS011;63651;55.728;38.022;2024-03-08T08:00:58;3.08;;;2.30;;
75071;SDS011;63651;55.728;38.022;2024-03-08T08:05:59;4.30;;;2.40;;
75071;SDS011;63651;55.728;38.022;2024-03-08T08:11:02;4.10;;;1.70;;
75071;SDS011;63651;55.728;38.022;2024-03-08T08:16:07;4.43;;;1.90;;
75071;SDS011;63651;55.728;38.022;2024-03-08T08:21:08;2.92;;;1.95;;
75071;SDS011;63651;55.728;38.022;2024-03-08T08:26:11;3.42;;;2.03;;
75071;SDS011;63651;55.728;38.022;2024-03-08T08:31:14;3.25;;;1.90;;
75071;SDS011;63651;55.728;38.022;2024-03-08T08:36:16;2.67;;;1.90;;
75071;SDS011;63651;55.728;38.022;2024-03-08T08:41:20;3.08;;;1.80;;
75071;SDS011;63651;55.728;38.022;2024-03-08T08:46:23;3.58;;;1.80;;
75071;SDS011;63651;55.728;38.022;2024-03-08T08:51:25;2.75;;;2.10;;
75071;SDS011;63651;55.728;38.022;2024-03-08T08:56:28;3.42;;;2.60;;
75071;SDS011;63651;55.728;38.022;2024-03-08T09:01:30;3.17;;;2.25;;
75071;SDS011;63651;55.728;38.022;2024-03-08T09:06:31;3.85;;;2.80;;
75071;SDS011;63651;55.728;38.022;2024-03-08T09:11:33;4.68;;;2.45;;
75071;SDS011;63651;55.728;38.022;2024-03-08T09:16:35;5.32;;;2.88;;
75071;SDS011;63651;55.728;38.022;2024-03-08T09:21:37;3.35;;;2.38;;
75071;SDS011;63651;55.728;38.022;2024-03-08T09:26:41;3.47;;;2.50;;
75071;SDS011;63651;55.728;38.022;2024-03-08T09:31:44;4.20;;;2.53;;
75071;SDS011;63651;55.728;38.022;2024-03-08T09:36:47;3.90;;;3.17;;
75071;SDS011;63651;55.728;38.022;2024-03-08T09:41:49;3.80;;;2.92;;
75071;SDS011;63651;55.728;38.022;2024-03-08T09:46:51;5.88;;;4.00;;
75071;SDS011;63651;55.728;38.022;2024-03-08T09:51:54;7.63;;;5.20;;
75071;SDS011;63651;55.728;38.022;2024-03-08T09:56:57;6.10;;;4.32;;
75071;SDS011;63651;55.728;38.022;2024-03-08T10:01:59;7.18;;;6.47;;
75071;SDS011;63651;55.728;38.022;2024-03-08T10:07:03;5.90;;;5.40;;
75071;SDS011;63651;55.728;38.022;2024-03-08T10:12:05;6.30;;;5.80;;
75071;SDS011;63651;55.728;38.022;2024-03-08T10:17:07;5.30;;;4.80;;
75071;SDS011;63651;55.728;38.022;2024-03-08T10:22:14;4.40;;;3.92;;
75071;SDS011;63651;55.728;38.022;2024-03-08T10:27:17;4.82;;;4.43;;
75071;SDS011;63651;55.728;38.022;2024-03-08T10:32:19;4.20;;;3.80;;
75071;SDS011;63651;55.728;38.022;2024-03-08T10:37:22;3.58;;;3.28;;
75071;SDS011;63651;55.728;38.022;2024-03-08T10:42:27;6.45;;;4.95;;
75071;SDS011;63651;55.728;38.022;2024-03-08T10:47:30;4.80;;;4.30;;
75071;SDS011;63651;55.728;38.022;2024-03-08T10:52:36;4.18;;;3.22;;
75071;SDS011;63651;55.728;38.022;2024-03-08T10:57:40;3.90;;;3.50;;
75071;SDS011;63651;55.728;38.022;2024-03-08T11:02:45;3.20;;;2.90;;
75071;SDS011;63651;55.728;38.022;2024-03-08T11:07:49;3.55;;;2.70;;
75071;SDS011;63651;55.728;38.022;2024-03-08T11:12:53;5.13;;;2.70;;
75071;SDS011;63651;55.728;38.022;2024-03-08T11:17:57;2.92;;;2.22;;
75071;SDS011;63651;55.728;38.022;2024-03-08T11:23:05;4.22;;;2.70;;
75071;SDS011;63651;55.728;38.022;2024-03-08T11:33:30;3.75;;;2.63;;
75071;SDS011;63651;55.728;38.022;2024-03-08T11:38:40;4.13;;;2.65;;
75071;SDS011;63651;55.728;38.022;2024-03-08T11:43:43;2.55;;;2.35;;
75071;SDS011;63651;55.728;38.022;2024-03-08T11:48:48;3.53;;;2.72;;
75071;SDS011;63651;55.728;38.022;2024-03-08T11:53:49;4.55;;;3.05;;
75071;SDS011;63651;55.728;38.022;2024-03-08T11:58:52;3.55;;;2.65;;
75071;SDS011;63651;55.728;38.022;2024-03-08T12:04:16;3.40;;;2.25;;
75071;SDS011;63651;55.728;38.022;2024-03-08T12:14:24;3.17;;;2.25;;
75071;SDS011;63651;55.728;38.022;2024-03-08T12:19:28;3.05;;;2.20;;
75071;SDS011;63651;55.728;38.022;2024-03-08T12:24:30;3.53;;;2.30;;
75071;SDS011;63651;55.728;38.022;2024-03-08T12:29:32;2.88;;;2.00;;
75071;SDS011;63651;55.728;38.022;2024-03-08T12:34:35;3.22;;;2.22;;
75071;SDS011;63651;55.728;38.022;2024-03-08T12:39:37;3.65;;;1.95;;
75071;SDS011;63651;55.728;38.022;2024-03-08T12:44:41;2.92;;;2.20;;
75071;SDS011;63651;55.728;38.022;2024-03-08T12:49:44;3.53;;;2.03;;
75071;SDS011;63651;55.728;38.022;2024-03-08T12:54:47;2.53;;;2.00;;
75071;SDS011;63651;55.728;38.022;2024-03-08T12:59:51;2.72;;;2.33;;
75071;SDS011;63651;55.728;38.022;2024-03-08T13:04:55;2.28;;;2.00;;
75071;SDS011;63651;55.728;38.022;2024-03-08T13:09:58;4.18;;;3.65;;
75071;SDS011;63651;55.728;38.022;2024-03-08T13:15:01;3.25;;;2.30;;
75071;SDS011;63651;55.728;38.022;2024-03-08T13:20:03;3.90;;;2.28;;
75071;SDS011;63651;55.728;38.022;2024-03-08T13:25:10;2.70;;;1.65;;
75071;SDS011;63651;55.728;38.022;2024-03-08T13:30:15;2.55;;;1.95;;
75071;SDS011;63651;55.728;38.022;2024-03-08T13:35:19;2.28;;;1.63;;
75071;SDS011;63651;55.728;38.022;2024-03-08T13:40:25;2.97;;;1.70;;
75071;SDS011;63651;55.728;38.022;2024-03-08T13:45:28;3.90;;;1.90;;
75071;SDS011;63651;55.728;38.022;2024-03-08T13:50:30;2.67;;;1.75;;
75071;SDS011;63651;55.728;38.022;2024-03-08T13:55:33;2.45;;;1.67;;
75071;SDS011;63651;55.728;38.022;2024-03-08T14:00:36;3.10;;;1.80;;
75071;SDS011;63651;55.728;38.022;2024-03-08T14:05:39;3.33;;;2.28;;
75071;SDS011;63651;55.728;38.022;2024-03-08T14:10:40;3.33;;;2.20;;
75071;SDS011;63651;55.728;38.022;2024-03-08T14:15:43;2.78;;;2.20;;
75071;SDS011;63651;55.728;38.022;2024-03-08T14:20:47;3.00;;;1.75;;
75071;SDS011;63651;55.728;38.022;2024-03-08T14:25:50;3.72;;;2.15;;
75071;SDS011;63651;55.728;38.022;2024-03-08T14:30:53;4.38;;;2.65;;
75071;SDS011;63651;55.728;38.022;2024-03-08T14:35:56;3.47;;;2.55;;
75071;SDS011;63651;55.728;38.022;2024-03-08T14:40:57;5.82;;;2.30;;
75071;SDS011;63651;55.728;38.022;2024-03-08T14:46:00;2.67;;;1.83;;
75071;SDS011;63651;55.728;38.022;2024-03-08T14:51:04;2.33;;;1.98;;
75071;SDS011;63651;55.728;38.022;2024-03-08T14:56:11;3.42;;;1.90;;
75071;SDS011;63651;55.728;38.022;2024-03-08T15:01:18;2.88;;;2.13;;
75071;SDS011;63651;55.728;38.022;2024-03-08T15:06:40;5.28;;;2.25;;
75071;SDS011;63651;55.728;38.022;2024-03-08T15:11:47;4.15;;;2.90;;
75071;SDS011;63651;55.728;38.022;2024-03-08T15:16:50;5.30;;;3.33;;
75071;SDS011;63651;55.728;38.022;2024-03-08T15:21:52;3.90;;;2.40;;
75071;SDS011;63651;55.728;38.022;2024-03-08T15:26:57;2.72;;;2.08;;
75071;SDS011;63651;55.728;38.022;2024-03-08T15:32:02;2.88;;;2.30;;
75071;SDS011;63651;55.728;38.022;2024-03-08T15:37:07;3.00;;;1.92;;
75071;SDS011;63651;55.728;38.022;2024-03-08T15:42:08;2.92;;;1.92;;
75071;SDS011;63651;55.728;38.022;2024-03-08T15:47:12;3.55;;;1.98;;
75071;SDS011;63651;55.728;38.022;2024-03-08T15:52:14;3.63;;;2.17;;
75071;SDS011;63651;55.728;38.022;2024-03-08T15:57:16;3.00;;;2.03;;
75071;SDS011;63651;55.728;38.022;2024-03-08T16:02:22;3.20;;;2.20;;
75071;SDS011;63651;55.728;38.022;2024-03-08T16:07:26;3.08;;;2.13;;
75071;SDS011;63651;55.728;38.022;2024-03-08T16:12:29;2.78;;;1.80;;
75071;SDS011;63651;55.728;38.022;2024-03-08T16:17:31;2.95;;;1.83;;
75071;SDS011;63651;55.728;38.022;2024-03-08T16:22:32;4.20;;;2.20;;
75071;SDS011;63651;55.728;38.022;2024-03-08T16:27:34;3.60;;;2.13;;
75071;SDS011;63651;55.728;38.022;2024-03-08T16:32:37;4.57;;;2.22;;
75071;SDS011;63651;55.728;38.022;2024-03-08T16:37:45;3.30;;;2.00;;
75071;SDS011;63651;55.728;38.022;2024-03-08T16:42:48;3.22;;;2.20;;
75071;SDS011;63651;55.728;38.022;2024-03-08T16:47:52;3.30;;;2.35;;
75071;SDS011;63651;55.728;38.022;2024-03-08T16:52:55;4.53;;;2.15;;
75071;SDS011;63651;55.728;38.022;2024-03-08T16:57:58;2.90;;;2.05;;
75071;SDS011;63651;55.728;38.022;2024-03-08T17:03:01;3.13;;;1.92;;
75071;SDS011;63651;55.728;38.022;2024-03-08T17:08:04;4.10;;;2.03;;
75071;SDS011;63651;55.728;38.022;2024-03-08T17:13:07;4.70;;;2.97;;
75071;SDS011;63651;55.728;38.022;2024-03-08T17:18:09;3.38;;;2.42;;
75071;SDS011;63651;55.728;38.022;2024-03-08T17:23:12;3.60;;;2.20;;
75071;SDS011;63651;55.728;38.022;2024-03-08T17:28:15;3.08;;;1.80;;
75071;SDS011;63651;55.728;38.022;2024-03-08T17:33:17;4.18;;;2.10;;
75071;SDS011;63651;55.728;38.022;2024-03-08T17:38:22;4.53;;;1.70;;
75071;SDS011;63651;55.728;38.022;2024-03-08T17:43:25;4.20;;;2.20;;
75071;SDS011;63651;55.728;38.022;2024-03-08T17:48:28;2.92;;;1.98;;
75071;SDS011;63651;55.728;38.022;2024-03-08T17:53:31;2.25;;;1.65;;
75071;SDS011;63651;55.728;38.022;2024-03-08T17:58:36;2.67;;;1.38;;
75071;SDS011;63651;55.728;38.022;2024-03-08T18:03:38;2.72;;;1.85;;
75071;SDS011;63651;55.728;38.022;2024-03-08T18:08:41;3.03;;;2.00;;
75071;SDS011;63651;55.728;38.022;2024-03-08T18:13:45;3.28;;;1.85;;
75071;SDS011;63651;55.728;38.022;2024-03-08T18:18:49;3.13;;;1.45;;
75071;SDS011;63651;55.728;38.022;2024-03-08T18:23:51;6.60;;;4.00;;
75071;SDS011;63651;55.728;38.022;2024-03-08T18:28:54;4.68;;;2.53;;
75071;SDS011;63651;55.728;38.022;2024-03-08T18:33:57;3.90;;;2.60;;
75071;SDS011;63651;55.728;38.022;2024-03-08T18:39:01;3.63;;;1.83;;
75071;SDS011;63651;55.728;38.022;2024-03-08T18:44:05;3.45;;;1.40;;
75071;SDS011;63651;55.728;38.022;2024-03-08T18:49:07;3.25;;;1.50;;
75071;SDS011;63651;55.728;38.022;2024-03-08T18:54:10;2.47;;;1.65;;
75071;SDS011;63651;55.728;38.022;2024-03-08T18:59:13;2.70;;;1.20;;
75071;SDS011;63651;55.728;38.022;2024-03-08T19:04:16;1.98;;;1.13;;
75071;SDS011;63651;55.728;38.022;2024-03-08T19:09:18;1.85;;;1.08;;
75071;SDS011;63651;55.728;38.022;2024-03-08T19:14:21;3.95;;;2.53;;
75071;SDS011;63651;55.728;38.022;2024-03-08T19:19:23;3.35;;;1.70;;
75071;SDS011;63651;55.728;38.022;2024-03-08T19:24:25;4.25;;;1.63;;
75071;SDS011;63651;55.728;38.022;2024-03-08T19:29:27;2.10;;;1.00;;
75071;SDS011;63651;55.728;38.022;2024-03-08T19:34:30;2.28;;;1.00;;
75071;SDS011;63651;55.728;38.022;2024-03-08T19:39:33;1.70;;;1.10;;
75071;SDS011;63651;55.728;38.022;2024-03-08T19:44:36;2.05;;;0.82;;
75071;SDS011;63651;55.728;38.022;2024-03-08T19:49:44;2.10;;;0.95;;
75071;SDS011;63651;55.728;38.022;2024-03-08T19:54:46;1.60;;;0.93;;
75071;SDS011;63651;55.728;38.022;2024-03-08T19:59:48;1.30;;;0.75;;
75071;SDS011;63651;55.728;38.022;2024-03-08T20:04:53;2.03;;;0.90;;
75071;SDS011;63651;55.728;38.022;2024-03-08T20:09:57;1.42;;;0.90;;
75071;SDS011;63651;55.728;38.022;2024-03-08T20:15:04;2.15;;;0.88;;
75071;SDS011;63651;55.728;38.022;2024-03-08T20:20:09;1.33;;;0.70;;
75071;SDS011;63651;55.728;38.022;2024-03-08T20:25:20;1.10;;;0.63;;
75071;SDS011;63651;55.728;38.022;2024-03-08T20:30:27;2.40;;;0.60;;
75071;SDS011;63651;55.728;38.022;2024-03-08T20:35:31;1.67;;;0.75;;
75071;SDS011;63651;55.728;38.022;2024-03-08T20:40:37;1.00;;;0.50;;
75071;SDS011;63651;55.728;38.022;2024-03-08T20:45:47;1.42;;;0.60;;
75071;SDS011;63651;55.728;38.022;2024-03-08T20:50:50;1.10;;;0.55;;
75071;SDS011;63651;55.728;38.022;2024-03-08T20:55:53;2.70;;;1.60;;
75071;SDS011;63651;55.728;38.022;2024-03-08T21:00:55;1.58;;;0.88;;
75071;SDS011;63651;55.728;38.022;2024-03-08T21:06:00;1.42;;;0.75;;
75071;SDS011;63651;55.728;38.022;2024-03-08T21:11:03;1.40;;;0.50;;
75071;SDS011;63651;55.728;38.022;2024-03-08T21:16:06;1.13;;;0.70;;
75071;SDS011;63651;55.728;38.022;2024-03-08T21:21:08;2.10;;;0.80;;
75071;SDS011;63651;55.728;38.022;2024-03-08T21:26:10;1.38;;;0.35;;
75071;SDS011;63651;55.728;38.022;2024-03-08T21:31:15;1.38;;;0.52;;
75071;SDS011;63651;55.728;38.022;2024-03-08T21:36:17;1.15;;;0.47;;
75071;SDS011;63651;55.728;38.022;2024-03-08T21:41:19;1.42;;;0.40;;
75071;SDS011;63651;55.728;38.022;2024-03-08T21:46:23;1.00;;;0.55;;
75071;SDS011;63651;55.728;38.022;2024-03-08T21:51:26;1.52;;;0.50;;
75071;SDS011;63651;55.728;38.022;2024-03-08T21:56:29;2.53;;;0.88;;
75071;SDS011;63651;55.728;38.022;2024-03-08T22:01:33;1.42;;;0.70;;
75071;SDS011;63651;55.728;38.022;2024-03-08T22:06:35;1.45;;;0.50;;
75071;SDS011;63651;55.728;38.022;2024-03-08T22:11:38;0.65;;;0.30;;
75071;SDS011;63651;55.728;38.022;2024-03-08T22:16:40;0.82;;;0.35;;
75071;SDS011;63651;55.728;38.022;2024-03-08T22:21:41;0.68;;;0.30;;
75071;SDS011;63651;55.728;38.022;2024-03-08T22:26:44;0.82;;;0.35;;
75071;SDS011;63651;55.728;38.022;2024-03-08T22:31:46;0.93;;;0.40;;
75071;SDS011;63651;55.728;38.022;2024-03-08T22:36:50;1.17;;;0.30;;
75071;SDS011;63651;55.728;38.022;2024-03-08T22:41:53;1.17;;;0.50;;
75071;SDS011;63651;55.728;38.022;2024-03-08T22:46:59;0.70;;;0.40;;
75071;SDS011;63651;55.728;38.022;2024-03-08T22:52:02;0.77;;;0.30;;
75071;SDS011;63651;55.728;38.022;2024-03-08T22:57:05;1.52;;;0.40;;
75071;SDS011;63651;55.728;38.022;2024-03-08T23:02:09;0.70;;;0.20;;
75071;SDS011;63651;55.728;38.022;2024-03-08T23:07:12;0.93;;;0.40;;
75071;SDS011;63651;55.728;38.022;2024-03-08T23:12:14;1.33;;;0.43;;
75071;SDS011;63651;55.728;38.022;2024-03-08T23:17:16;0.63;;;0.28;;
75071;SDS011;63651;55.728;38.022;2024-03-08T23:22:19;0.82;;;0.35;;
75071;SDS011;63651;55.728;38.022;2024-03-08T23:27:23;0.73;;;0.20;;
75071;SDS011;63651;55.728;38.022;2024-03-08T23:32:26;1.00;;;0.50;;
75071;SDS011;63651;55.728;38.022;2024-03-08T23:37:28;1.00;;;0.40;;
75071;SDS011;63651;55.728;38.022;2024-03-08T23:42:31;0.77;;;0.30;;
75071;SDS011;63651;55.728;38.022;2024-03-08T23:47:34;1.08;;;0.17;;
75071;SDS011;63651;55.728;38.022;2024-03-08T23:52:36;1.08;;;0.30;;
75071;SDS011;63651;55.728;38.022;2024-03-08T23:57:48;1.60;;;0.22;;
